createdAt,value
2022-10-06T00:02:23.399Z,12.92
2022-10-06T00:05:26.176Z,12.91
2022-10-06T00:08:31.971Z,12.90
2022-10-06T00:11:35.499Z,12.79
2022-10-06T00:14:38.718Z,12.90
2022-10-06T00:17:41.498Z,12.85
2022-10-06T00:20:44.394Z,12.84
2022-10-06T00:23:48.827Z,12.84
2022-10-06T00:26:51.514Z,12.82
2022-10-06T00:29:54.224Z,12.81
2022-10-06T00:32:58.805Z,12.80
2022-10-06T00:36:01.783Z,12.74
2022-10-06T00:39:06.078Z,12.63
2022-10-06T00:42:23.032Z,12.69
2022-10-06T00:45:32.158Z,12.67
2022-10-06T00:48:35.354Z,12.68
2022-10-06T00:51:42.015Z,12.73
2022-10-06T00:54:46.143Z,12.68
2022-10-06T00:57:49.924Z,12.66
2022-10-06T01:00:55.621Z,12.66
2022-10-06T01:04:05.105Z,12.63
2022-10-06T01:07:08.164Z,12.61
2022-10-06T01:10:12.507Z,12.65
2022-10-06T01:13:16.164Z,12.65
2022-10-06T01:16:23.440Z,12.58
2022-10-06T01:19:39.705Z,12.53
2022-10-06T01:22:46.277Z,12.44
2022-10-06T01:25:50.133Z,12.48
2022-10-06T01:28:53.479Z,12.46
2022-10-06T01:31:56.527Z,12.51
2022-10-06T01:34:59.541Z,12.48
2022-10-06T01:38:03.656Z,12.47
2022-10-06T01:41:06.660Z,12.45
2022-10-06T01:44:09.605Z,12.42
2022-10-06T01:47:12.321Z,12.40
2022-10-06T01:50:15.591Z,12.34
2022-10-06T01:53:19.710Z,12.52
2022-10-06T01:56:22.990Z,12.56
2022-10-06T01:59:25.885Z,12.78
2022-10-06T02:02:31.603Z,12.85
2022-10-06T02:05:34.793Z,12.91
2022-10-06T02:08:39.468Z,12.92
2022-10-06T02:11:42.153Z,12.96
2022-10-06T02:14:45.187Z,13.05
2022-10-06T02:17:48.055Z,13.13
2022-10-06T02:20:51.141Z,13.18
2022-10-06T02:23:55.246Z,13.20
2022-10-06T02:26:58.132Z,13.27
2022-10-06T02:30:01.627Z,13.32
2022-10-06T02:33:04.704Z,13.41
2022-10-06T02:36:09.216Z,13.48
2022-10-06T02:39:13.331Z,13.51
2022-10-06T02:42:17.173Z,13.60
2022-10-06T02:45:20.222Z,13.67
2022-10-06T02:48:24.749Z,13.72
2022-10-06T02:51:27.508Z,13.82
2022-10-06T02:54:31.663Z,13.91
2022-10-06T02:57:34.453Z,14.01
2022-10-06T03:00:37.414Z,14.06
2022-10-06T03:03:40.448Z,14.11
2022-10-06T03:06:43.573Z,14.16
2022-10-06T03:09:47.823Z,14.16
2022-10-06T03:12:51.162Z,14.18
2022-10-06T03:15:54.370Z,14.21
2022-10-06T03:18:57.457Z,14.27
2022-10-06T03:22:00.464Z,14.30
2022-10-06T03:25:05.224Z,14.40
2022-10-06T03:28:08.017Z,14.49
2022-10-06T03:31:11.440Z,14.63
2022-10-06T03:34:15.505Z,14.70
2022-10-06T03:37:19.326Z,14.84
2022-10-06T03:40:23.743Z,14.95
2022-10-06T03:43:26.743Z,15.05
2022-10-06T03:46:31.764Z,15.13
2022-10-06T03:49:34.779Z,15.25
2022-10-06T03:52:38.084Z,15.27
2022-10-06T03:55:42.122Z,15.33
2022-10-06T03:58:46.917Z,15.71
2022-10-06T04:01:50.110Z,15.73
2022-10-06T04:04:52.816Z,15.67
2022-10-06T04:07:55.503Z,15.80
2022-10-06T04:11:07.350Z,15.55
2022-10-06T04:14:13.011Z,15.66
2022-10-06T04:17:16.018Z,15.55
2022-10-06T04:20:18.729Z,15.43
2022-10-06T04:23:21.759Z,15.36
2022-10-06T04:26:28.648Z,15.31
2022-10-06T04:29:31.395Z,15.32
2022-10-06T04:32:34.495Z,15.39
2022-10-06T04:35:37.208Z,15.50
2022-10-06T04:38:40.084Z,15.51
2022-10-06T04:41:47.616Z,15.47
2022-10-06T04:44:50.381Z,15.47
2022-10-06T04:47:53.091Z,15.53
2022-10-06T04:50:57.571Z,15.70
2022-10-06T04:54:01.150Z,15.59
2022-10-06T04:57:06.167Z,15.61
2022-10-06T05:00:25.349Z,15.59
2022-10-06T05:03:30.076Z,15.56
2022-10-06T05:06:34.607Z,15.55
2022-10-06T05:09:37.762Z,15.54
2022-10-06T05:12:42.141Z,15.52
2022-10-06T05:15:45.135Z,15.51
2022-10-06T05:18:48.167Z,15.49
2022-10-06T05:21:51.187Z,15.48
2022-10-06T05:24:53.929Z,15.46
2022-10-06T05:27:58.038Z,15.45
2022-10-06T05:31:05.090Z,15.45
2022-10-06T05:34:08.318Z,15.44
2022-10-06T05:37:11.023Z,15.42
2022-10-06T05:40:14.288Z,15.44
2022-10-06T05:43:19.675Z,15.42
2022-10-06T05:46:25.210Z,15.44
2022-10-06T05:49:28.052Z,15.45
2022-10-06T05:52:31.209Z,15.40
2022-10-06T05:55:33.911Z,15.32
2022-10-06T05:58:39.858Z,15.21
2022-10-06T06:01:44.659Z,15.23
2022-10-06T06:04:47.549Z,15.11
2022-10-06T06:07:50.269Z,15.34
2022-10-06T06:10:53.034Z,15.35
2022-10-06T06:13:59.549Z,15.34
2022-10-06T06:17:01.821Z,15.36
2022-10-06T06:20:05.311Z,15.40
2022-10-06T06:23:08.374Z,15.46
2022-10-06T06:26:13.133Z,15.53
2022-10-06T06:29:17.495Z,15.57
2022-10-06T06:32:20.618Z,15.63
2022-10-06T06:35:23.291Z,15.75
2022-10-06T06:38:26.427Z,15.85
2022-10-06T06:41:31.042Z,15.95
2022-10-06T06:44:35.559Z,16.02
2022-10-06T06:47:39.154Z,16.09
2022-10-06T06:50:42.058Z,16.19
2022-10-06T06:53:44.862Z,16.29
2022-10-06T06:56:48.859Z,16.35
2022-10-06T06:59:53.359Z,16.30
2022-10-06T07:03:00.931Z,16.23
2022-10-06T07:06:09.745Z,16.11
2022-10-06T07:09:12.521Z,16.11
2022-10-06T07:12:15.190Z,16.10
2022-10-06T07:15:36.665Z,16.06
2022-10-06T07:18:56.948Z,15.91
2022-10-06T07:22:20.146Z,15.85
2022-10-06T07:25:26.471Z,15.88
2022-10-06T07:28:30.887Z,15.83
2022-10-06T07:31:36.695Z,15.82
2022-10-06T07:37:49.664Z,15.81
2022-10-06T07:41:17.914Z,15.91
2022-10-06T07:44:18.316Z,15.95
2022-10-06T07:47:22.375Z,16.25
2022-10-06T07:50:26.048Z,16.26
2022-10-06T07:53:29.396Z,16.34
2022-10-06T07:56:32.651Z,16.32
2022-10-06T07:59:35.766Z,16.26
2022-10-06T08:02:40.188Z,16.15
2022-10-06T08:05:43.019Z,16.11
2022-10-06T08:08:52.399Z,16.08
2022-10-06T08:11:55.687Z,16.04
2022-10-06T08:15:04.393Z,16.00
2022-10-06T08:18:27.206Z,16.11
2022-10-06T08:21:35.533Z,15.84
2022-10-06T08:25:04.364Z,16.24
2022-10-06T08:28:01.128Z,16.30
2022-10-06T08:31:11.580Z,16.46
2022-10-06T08:34:15.752Z,16.51
2022-10-06T08:37:23.829Z,16.60
2022-10-06T08:40:27.580Z,16.47
2022-10-06T08:43:33.208Z,16.43
2022-10-06T08:46:41.151Z,16.42
2022-10-06T08:49:48.067Z,16.48
2022-10-06T08:53:02.135Z,16.24
2022-10-06T08:56:18.384Z,16.15
2022-10-06T08:59:21.731Z,16.25
2022-10-06T09:02:29.943Z,16.39
2022-10-06T09:05:34.953Z,16.60
2022-10-06T09:08:50.847Z,16.85
2022-10-06T09:12:07.148Z,17.09
2022-10-06T09:15:20.791Z,17.41
2022-10-06T09:18:49.409Z,17.61
2022-10-06T09:21:55.841Z,17.88
2022-10-06T09:25:02.444Z,18.12
2022-10-06T09:28:09.490Z,18.34
2022-10-06T09:31:22.160Z,18.59
2022-10-06T09:34:36.590Z,18.72
2022-10-06T09:37:55.328Z,18.72
2022-10-06T09:40:58.299Z,19.06
2022-10-06T09:44:04.323Z,19.34
2022-10-06T09:47:25.136Z,19.44
2022-10-06T09:50:29.627Z,19.46
2022-10-06T09:53:37.511Z,19.51
2022-10-06T09:56:42.328Z,19.64
2022-10-06T09:59:46.747Z,19.94
2022-10-06T10:02:57.103Z,20.04
2022-10-06T10:06:02.339Z,20.04
2022-10-06T10:09:29.319Z,19.92
2022-10-06T10:12:35.100Z,19.83
2022-10-06T10:15:54.505Z,20.04
2022-10-06T10:18:58.621Z,19.59
2022-10-06T10:22:01.606Z,19.37
2022-10-06T10:25:19.323Z,19.29
2022-10-06T10:28:42.720Z,19.13
2022-10-06T10:31:59.081Z,19.21
2022-10-06T10:35:11.959Z,19.28
2022-10-06T10:38:19.711Z,19.32
2022-10-06T10:41:27.270Z,19.54
2022-10-06T10:44:35.351Z,19.49
2022-10-06T10:47:41.632Z,19.50
2022-10-06T10:50:51.396Z,19.43
2022-10-06T10:53:57.786Z,19.55
2022-10-06T10:57:02.010Z,19.39
2022-10-06T11:00:08.038Z,19.28
2022-10-06T11:03:11.531Z,19.45
2022-10-06T11:06:54.360Z,19.68
2022-10-06T11:10:04.472Z,19.81
2022-10-06T11:13:20.642Z,20.09
2022-10-06T11:16:38.133Z,20.20
2022-10-06T11:19:52.451Z,20.38
2022-10-06T11:23:01.024Z,20.54
2022-10-06T11:26:19.129Z,20.68
2022-10-06T11:29:35.309Z,20.68
2022-10-06T11:32:49.991Z,20.65
2022-10-06T11:35:53.215Z,20.47
2022-10-06T11:39:02.437Z,20.41
2022-10-06T11:42:15.259Z,20.46
2022-10-06T11:45:24.931Z,20.43
2022-10-06T11:48:29.946Z,20.40
2022-10-06T11:51:32.685Z,20.32
2022-10-06T11:54:45.069Z,20.20
2022-10-06T11:58:41.532Z,20.23
2022-10-06T12:01:56.821Z,20.28
2022-10-06T12:08:56.139Z,20.34
2022-10-06T12:12:03.024Z,20.42
2022-10-06T12:18:51.240Z,20.32
2022-10-06T12:22:01.694Z,20.30
2022-10-06T12:25:11.198Z,20.35
2022-10-06T12:28:25.231Z,20.35
2022-10-06T12:31:46.966Z,20.33
2022-10-06T12:35:03.061Z,20.33
2022-10-06T12:38:06.819Z,20.33
2022-10-06T12:41:12.057Z,20.24
2022-10-06T12:44:24.252Z,20.27
2022-10-06T12:47:36.066Z,20.30
2022-10-06T12:50:42.999Z,20.33
2022-10-06T12:53:52.569Z,20.37
2022-10-06T12:57:00.080Z,20.34
2022-10-06T13:00:03.268Z,20.28
2022-10-06T13:03:08.941Z,20.24
2022-10-06T13:06:13.051Z,20.00
2022-10-06T13:09:15.720Z,19.90
2022-10-06T13:12:24.776Z,19.88
2022-10-06T13:18:38.235Z,19.95
2022-10-06T13:21:42.441Z,19.89
2022-10-06T13:24:45.208Z,19.98
2022-10-06T13:27:51.607Z,19.99
2022-10-06T13:30:56.055Z,20.06
2022-10-06T13:34:02.369Z,20.12
2022-10-06T13:37:06.523Z,20.13
2022-10-06T13:40:27.514Z,20.20
2022-10-06T13:43:43.343Z,20.07
2022-10-06T13:46:50.398Z,20.02
2022-10-06T13:49:57.031Z,20.05
2022-10-06T13:53:01.972Z,20.08
2022-10-06T13:56:04.721Z,19.95
2022-10-06T13:59:30.646Z,19.89
2022-10-06T14:02:34.241Z,19.89
2022-10-06T14:05:38.928Z,19.94
2022-10-06T14:08:46.868Z,19.90
2022-10-06T14:11:49.781Z,19.77
2022-10-06T14:14:54.260Z,19.68
2022-10-06T14:17:59.155Z,19.69
2022-10-06T14:21:18.247Z,19.79
2022-10-06T14:24:26.130Z,19.65
2022-10-06T14:27:29.190Z,19.61
2022-10-06T14:30:31.893Z,19.58
2022-10-06T14:33:35.043Z,19.52
2022-10-06T14:36:38.393Z,19.33
2022-10-06T14:39:42.736Z,19.29
2022-10-06T14:42:45.963Z,19.21
2022-10-06T14:45:48.748Z,19.16
2022-10-06T14:48:52.522Z,19.13
2022-10-06T14:51:56.139Z,19.13
2022-10-06T14:55:00.703Z,19.10
2022-10-06T14:58:03.889Z,19.09
2022-10-06T15:01:07.413Z,19.04
2022-10-06T15:04:12.701Z,19.01
2022-10-06T15:07:44.456Z,19.00
2022-10-06T15:10:54.063Z,18.91
2022-10-06T15:13:58.732Z,18.94
2022-10-06T15:17:01.624Z,18.86
2022-10-06T15:20:04.692Z,18.78
2022-10-06T15:23:07.467Z,18.72
2022-10-06T15:26:30.241Z,18.63
2022-10-06T15:29:33.938Z,18.55
2022-10-06T15:32:37.250Z,18.46
2022-10-06T15:35:40.141Z,18.38
2022-10-06T15:38:42.867Z,18.25
2022-10-06T15:41:48.279Z,18.14
2022-10-06T15:44:50.991Z,18.07
2022-10-06T15:47:53.723Z,17.99
2022-10-06T15:50:58.103Z,17.86
2022-10-06T15:54:00.851Z,17.73
2022-10-06T15:57:06.547Z,17.56
2022-10-06T16:00:10.776Z,17.34
2022-10-06T16:03:26.220Z,17.26
2022-10-06T16:06:41.677Z,16.95
2022-10-06T16:09:45.898Z,16.74
2022-10-06T16:12:49.920Z,16.75
2022-10-06T16:15:56.288Z,16.58
2022-10-06T16:18:59.417Z,16.30
2022-10-06T16:22:02.213Z,16.22
2022-10-06T16:25:05.643Z,16.11
2022-10-06T16:28:09.706Z,15.94
2022-10-06T16:31:12.734Z,15.77
2022-10-06T16:34:15.970Z,15.75
2022-10-06T16:37:18.732Z,15.62
2022-10-06T16:40:23.050Z,15.44
2022-10-06T16:43:31.409Z,15.35
2022-10-06T16:46:34.672Z,15.26
2022-10-06T16:49:37.463Z,15.15
2022-10-06T16:52:40.514Z,14.98
2022-10-06T16:55:43.618Z,14.78
2022-10-06T16:58:50.163Z,14.70
2022-10-06T17:01:52.945Z,14.62
2022-10-06T17:04:55.599Z,14.59
2022-10-06T17:07:59.235Z,14.42
2022-10-06T17:11:04.797Z,14.33
2022-10-06T17:14:09.208Z,14.22
2022-10-06T17:17:11.991Z,14.12
2022-10-06T17:20:15.562Z,14.06
2022-10-06T17:23:18.401Z,14.01
2022-10-06T17:26:23.402Z,13.93
2022-10-06T17:29:28.002Z,13.86
2022-10-06T17:32:30.665Z,13.83
2022-10-06T17:35:37.553Z,13.75
2022-10-06T17:38:42.865Z,13.65
2022-10-06T17:41:46.617Z,13.59
2022-10-06T17:44:51.550Z,13.49
2022-10-06T17:47:54.286Z,13.39
2022-10-06T17:51:00.916Z,13.25
2022-10-06T17:54:05.677Z,13.18
2022-10-06T17:57:08.463Z,13.16
2022-10-06T18:00:14.987Z,13.07
2022-10-06T18:03:19.268Z,13.01
2022-10-06T18:06:24.180Z,12.94
2022-10-06T18:09:26.895Z,12.88
2022-10-06T18:12:36.283Z,12.82
2022-10-06T18:15:40.633Z,12.73
2022-10-06T18:18:48.095Z,12.54
2022-10-06T18:21:50.804Z,12.61
2022-10-06T18:24:58.528Z,12.54
2022-10-06T18:28:02.002Z,12.50
2022-10-06T18:31:06.436Z,12.46
2022-10-06T18:36:10.397Z,12.37
2022-10-06T18:37:34.350Z,12.27
2022-10-06T18:40:37.024Z,12.21
2022-10-06T18:43:39.863Z,12.16
2022-10-06T18:47:01.249Z,12.10
2022-10-06T18:50:04.098Z,12.00
2022-10-06T18:53:07.113Z,11.95
2022-10-06T18:56:10.723Z,11.86
2022-10-06T18:59:13.926Z,11.78
2022-10-06T19:02:18.072Z,11.74
2022-10-06T19:05:20.914Z,11.67
2022-10-06T19:08:24.164Z,11.59
2022-10-06T19:11:48.451Z,11.53
2022-10-06T19:14:51.301Z,11.43
2022-10-06T19:17:55.360Z,11.39
2022-10-06T19:20:58.645Z,11.38
2022-10-06T19:24:01.924Z,11.32
2022-10-06T19:27:11.608Z,11.26
2022-10-06T19:30:14.588Z,11.21
2022-10-06T19:33:18.650Z,11.16
2022-10-06T19:36:21.398Z,11.09
2022-10-06T19:39:26.376Z,11.05
2022-10-06T19:42:46.533Z,11.06
2022-10-06T19:45:57.546Z,10.89
2022-10-06T19:49:05.695Z,10.95
2022-10-06T19:52:10.623Z,10.85
2022-10-06T19:55:13.433Z,10.83
2022-10-06T19:58:16.527Z,10.63
2022-10-06T20:01:19.617Z,10.74
2022-10-06T20:04:25.327Z,10.64
2022-10-06T20:07:28.194Z,10.60
2022-10-06T20:10:30.936Z,10.58
2022-10-06T20:13:36.229Z,10.58
2022-10-06T20:16:42.638Z,10.56
2022-10-06T20:19:47.563Z,10.57
2022-10-06T20:22:50.632Z,10.54
2022-10-06T20:25:53.550Z,10.48
2022-10-06T20:28:56.280Z,10.46
2022-10-06T20:31:59.517Z,10.41
2022-10-06T20:35:04.762Z,10.35
2022-10-06T20:38:08.996Z,10.32
2022-10-06T20:41:10.777Z,10.29
2022-10-06T20:44:13.652Z,10.24
2022-10-06T20:47:17.421Z,10.18
2022-10-06T20:50:21.474Z,10.13
2022-10-06T20:53:31.490Z,10.09
2022-10-06T20:56:35.819Z,10.06
2022-10-06T20:59:38.653Z,10.00
2022-10-06T21:02:41.548Z,9.97
2022-10-06T21:05:51.006Z,9.91
2022-10-06T21:08:53.907Z,9.81
2022-10-06T21:11:57.624Z,9.84
2022-10-06T21:15:00.622Z,9.79
2022-10-06T21:18:05.747Z,9.73
2022-10-06T21:21:11.679Z,9.68
2022-10-06T21:24:14.657Z,9.64
2022-10-06T21:27:18.493Z,9.60
2022-10-06T21:30:21.401Z,9.55
2022-10-06T21:33:24.241Z,9.51
2022-10-06T21:36:32.263Z,9.46
2022-10-06T21:39:35.135Z,9.46
2022-10-06T21:42:37.993Z,9.40
2022-10-06T21:45:41.271Z,9.37
2022-10-06T21:48:44.350Z,9.33
2022-10-06T21:51:50.721Z,9.34
2022-10-06T21:54:53.594Z,9.31
2022-10-06T21:57:56.864Z,9.31
2022-10-06T22:01:02.963Z,9.27
2022-10-06T22:04:06.792Z,9.24
2022-10-06T22:07:11.032Z,9.22
2022-10-06T22:10:13.851Z,9.17
2022-10-06T22:13:16.715Z,9.15
2022-10-06T22:16:22.350Z,9.01
2022-10-06T22:19:25.563Z,9.08
2022-10-06T22:22:30.155Z,9.06
2022-10-06T22:25:32.988Z,9.00
2022-10-06T22:28:36.413Z,8.97
2022-10-06T22:31:40.748Z,8.94
2022-10-06T22:34:44.036Z,8.88
2022-10-06T22:37:50.272Z,8.80
2022-10-06T22:40:53.149Z,8.83
2022-10-06T22:43:58.075Z,8.85
2022-10-06T22:47:01.292Z,8.82
2022-10-06T22:50:04.643Z,8.82
2022-10-06T22:53:09.211Z,8.84
2022-10-06T22:56:12.270Z,8.78
2022-10-06T22:59:15.211Z,8.72
2022-10-06T23:02:18.422Z,8.81
2022-10-06T23:05:21.380Z,8.74
2022-10-06T23:08:29.046Z,8.65
2022-10-06T23:11:37.133Z,8.65
2022-10-06T23:14:39.981Z,8.63
2022-10-06T23:17:43.887Z,8.63
2022-10-06T23:20:46.828Z,8.57
2022-10-06T23:23:52.950Z,8.54
2022-10-06T23:26:58.480Z,8.53
2022-10-06T23:30:01.902Z,8.49
2022-10-06T23:33:05.430Z,8.42
2022-10-06T23:36:10.515Z,8.33
2022-10-06T23:39:15.430Z,8.37
2022-10-06T23:42:18.253Z,8.35
2022-10-06T23:45:21.414Z,8.22
2022-10-06T23:48:24.295Z,8.30
2022-10-06T23:51:27.770Z,8.33
2022-10-06T23:54:32.178Z,8.31
2022-10-06T23:57:35.199Z,8.28
